Route Details

Aircraft Information
Group: Boeing 767-300BDSF
Types: B763
Route Data
Distance: 1186nm
Duration: 2h 50m
Origin METAR: SVMI 080100Z 11003KT 9999 SCT016 BKN100 27/23 Q1014
Dest. METAR: KMIA 080053Z 07010KT 10SM SCT040 23/16 A3023 RMK AO2 SLP237 T02330156 $
Freight Data
(for Feb 8, 2023)
Load Factor:
50%
Manifested Cargo: 58,376lbs
Financial History
Total Freight: 55,174lbs
Average Load: 0lbs/flt
Fuel Used: 108,480lbs
Avg. Fuel Used: 0lbs/flt
Fuel Expense: $49,901
Avg. Fuel Expense: $0
Avg. Fuel Cost: $0/lbs
Total Gross Income: $172,143
Pilot Pay: $239
Total Expenses: $39,679
Total Revenue: $81,331
Average Revenue: $0

Capitol Logistics 775




SVMI
Simón Bolívar International Airport
Caracas, VE
KMIA
Miami International Airport
Miami, US

Activity Log

Date Flight Route Aircraft Duration
07/17/2022 CPX775 MARES1 MARES A315 ATONO UA315 JOSES A315 HODGY DCT FOWEE FOWEE2 B763 3h 02m